Time;durP1;ratioP1;P1;durP2;ratioP2;P2;SDS_P1;SDS_P2;PMS_P1;PMS_P2;Temp;Humidity;BMP_temperature;BMP_pressure;BME280_temperature;BME280_humidity;BME280_pressure;Samples;Min_cycle;Max_cycle;Signal;HPM_P1;HPM_P2
2022/07/14 00:01:23;;;;;;;8.80;4.03;;;22.10;99.90;;;;;;5012465;28;20226;-82
2022/07/14 00:03:49;;;;;;;10.40;4.57;;;22.00;99.90;;;;;;5011575;28;20244;-82
2022/07/14 00:06:14;;;;;;;10.80;4.27;;;22.00;99.90;;;;;;5009661;28;20243;-82
2022/07/14 00:08:40;;;;;;;9.63;3.97;;;22.00;99.90;;;;;;5012215;28;20206;-81
2022/07/14 00:11:06;;;;;;;8.30;3.87;;;22.00;1.00;;;;;;5043137;23;20232;-81
2022/07/14 00:13:32;;;;;;;8.77;4.20;;;21.90;1.00;;;;;;5028752;28;20187;-81
2022/07/14 00:15:57;;;;;;;9.27;4.40;;;21.90;1.00;;;;;;5032129;28;20729;-81
2022/07/14 00:18:23;;;;;;;9.07;4.20;;;21.90;1.00;;;;;;5028112;28;20443;-81
2022/07/14 00:20:49;;;;;;;7.23;4.00;;;21.90;1.00;;;;;;5026121;28;20200;-82
2022/07/14 00:23:15;;;;;;;10.37;4.10;;;21.90;1.00;;;;;;5012788;28;20192;-81
2022/07/14 00:25:42;;;;;;;5.93;4.30;;;21.80;1.00;;;;;;5012915;28;20766;-82
2022/07/14 00:28:07;;;;;;;8.03;3.63;;;21.80;1.00;;;;;;5011561;28;20473;-81
2022/07/14 00:30:33;;;;;;;15.27;4.77;;;21.80;1.00;;;;;;5011972;28;20504;-81
2022/07/14 00:32:58;;;;;;;13.13;4.20;;;21.70;1.00;;;;;;5013115;28;20183;-81
2022/07/14 00:35:24;;;;;;;10.03;4.03;;;21.70;1.00;;;;;;5014368;28;20204;-82
2022/07/14 00:37:50;;;;;;;12.63;4.30;;;21.70;1.00;;;;;;5012067;28;20212;-81
2022/07/14 00:40:15;;;;;;;9.93;4.00;;;21.60;1.00;;;;;;5013208;28;20237;-81
2022/07/14 00:42:46;;;;;;;5.80;3.13;;;21.60;1.00;;;;;;5013353;28;20180;-81
2022/07/14 00:45:20;;;;;;;8.27;4.57;;;21.60;1.00;;;;;;5012177;28;20522;-81
2022/07/14 00:47:47;;;;;;;9.67;3.80;;;21.60;1.00;;;;;;5014013;28;20521;-81
2022/07/14 00:50:15;;;;;;;9.40;3.60;;;21.50;1.00;;;;;;5012336;28;20485;-81
2022/07/14 00:52:42;;;;;;;8.67;3.77;;;21.50;1.00;;;;;;5013814;28;20438;-81
2022/07/14 00:55:12;;;;;;;9.80;3.27;;;21.50;1.00;;;;;;5010646;28;20461;-82
2022/07/14 00:57:38;;;;;;;7.27;3.63;;;21.40;1.00;;;;;;5014223;28;20444;-81
2022/07/14 01:00:07;;;;;;;11.13;3.40;;;21.40;1.00;;;;;;5012103;28;20438;-81
2022/07/14 01:02:32;;;;;;;8.10;3.27;;;21.30;1.00;;;;;;5011419;28;22033;-81
2022/07/14 01:04:58;;;;;;;11.40;3.37;;;21.30;1.00;;;;;;5013207;28;20522;-81
2022/07/14 01:07:23;;;;;;;9.97;3.30;;;21.30;1.00;;;;;;5012616;28;20206;-81
2022/07/14 01:09:52;;;;;;;9.20;3.63;;;21.30;1.00;;;;;;5012656;28;20680;-81
2022/07/14 01:12:17;;;;;;;10.60;4.00;;;21.30;1.00;;;;;;5009925;28;22297;-81
2022/07/14 01:14:44;;;;;;;13.77;3.50;;;21.30;1.00;;;;;;5011271;28;20450;-81
2022/07/14 01:17:10;;;;;;;12.80;3.63;;;21.20;1.00;;;;;;5013432;28;20177;-80
2022/07/14 01:19:36;;;;;;;7.03;3.90;;;21.20;1.00;;;;;;5013651;28;20452;-81
2022/07/14 01:22:02;;;;;;;7.17;3.47;;;21.20;1.00;;;;;;5012502;28;20298;-81
2022/07/14 01:24:29;;;;;;;6.40;3.37;;;21.20;1.00;;;;;;5011481;28;20433;-81
2022/07/14 01:26:55;;;;;;;8.07;3.60;;;21.10;1.00;;;;;;5013179;28;20437;-81
2022/07/14 01:29:21;;;;;;;12.70;4.30;;;21.00;1.00;;;;;;5011467;28;20532;-81
2022/07/14 01:31:46;;;;;;;18.87;4.53;;;21.00;1.00;;;;;;5009137;28;20452;-81
2022/07/14 01:34:12;;;;;;;7.57;3.37;;;21.00;1.00;;;;;;5008135;28;20516;-81
2022/07/14 01:36:38;;;;;;;8.53;4.13;;;20.90;1.00;;;;;;5011684;28;20217;-81
2022/07/14 01:39:05;;;;;;;11.63;3.93;;;20.90;1.00;;;;;;5010695;28;20181;-82
2022/07/14 01:41:31;;;;;;;11.53;4.30;;;20.80;6.30;;;;;;5027674;28;20213;-81
2022/07/14 01:43:57;;;;;;;11.63;5.00;;;20.80;18.50;;;;;;5025234;28;21898;-81
2022/07/14 01:46:23;;;;;;;14.67;3.87;;;20.80;24.10;;;;;;5011688;28;20480;-81
2022/07/14 01:48:49;;;;;;;10.13;3.43;;;20.70;52.80;;;;;;5012032;28;20198;-81
2022/07/14 01:51:15;;;;;;;7.93;3.80;;;20.70;45.20;;;;;;5010714;28;20472;-81
2022/07/14 01:53:43;;;;;;;8.50;3.77;;;20.70;46.20;;;;;;5010483;28;20441;-80
2022/07/14 01:56:10;;;;;;;12.83;4.90;;;20.70;56.60;;;;;;5012597;28;20547;-81
2022/07/14 01:58:36;;;;;;;8.40;3.90;;;20.70;33.70;;;;;;5011744;28;20444;-81
2022/07/14 02:03:46;;;;;;;7.90;3.30;;;20.70;99.90;;;;;;5013653;28;20269;-81
2022/07/14 02:06:12;;;;;;;8.37;4.07;;;20.70;99.90;;;;;;5011629;28;20468;-81
2022/07/14 02:08:38;;;;;;;10.63;3.83;;;20.70;99.90;;;;;;5012678;28;20206;-81
2022/07/14 02:13:48;;;;;;;7.23;2.83;;;20.60;1.00;;;;;;5011533;28;20449;-81
2022/07/14 02:16:13;;;;;;;13.33;4.03;;;20.60;1.00;;;;;;5012529;28;20477;-81
2022/07/14 02:18:39;;;;;;;11.37;4.73;;;20.60;1.00;;;;;;5011518;28;20187;-81
2022/07/14 02:21:05;;;;;;;15.33;3.87;;;20.50;1.00;;;;;;5012643;28;20210;-81
2022/07/14 02:23:30;;;;;;;8.27;3.63;;;20.50;1.00;;;;;;5010952;28;20712;-81
2022/07/14 02:25:56;;;;;;;13.57;3.70;;;20.40;1.00;;;;;;5009261;28;20204;-81
2022/07/14 02:28:22;;;;;;;8.73;3.90;;;20.40;1.00;;;;;;5011992;28;20200;-81
2022/07/14 02:30:48;;;;;;;17.30;4.10;;;20.40;1.00;;;;;;5011802;28;20209;-81
2022/07/14 02:33:13;;;;;;;13.27;3.80;;;20.40;8.10;;;;;;5012330;28;20466;-81
2022/07/14 02:35:39;;;;;;;13.33;4.60;;;20.40;43.10;;;;;;5012241;28;21643;-81
2022/07/14 02:38:05;;;;;;;13.07;2.90;;;20.40;99.90;;;;;;5013157;28;20240;-80
2022/07/14 02:40:30;;;;;;;10.80;4.70;;;20.30;99.90;;;;;;5014382;28;20218;-80
2022/07/14 02:42:56;;;;;;;10.30;4.50;;;20.20;99.90;;;;;;5013500;28;20205;-81
2022/07/14 02:45:21;;;;;;;9.70;3.50;;;20.30;99.90;;;;;;5010534;28;20194;-80
2022/07/14 02:47:47;;;;;;;9.33;4.07;;;20.20;99.90;;;;;;5012673;28;20241;-81
2022/07/14 02:50:13;;;;;;;14.03;3.40;;;20.10;99.90;;;;;;5012196;28;20205;-81
2022/07/14 02:52:39;;;;;;;14.77;3.70;;;20.10;99.90;;;;;;5011604;28;20437;-81
2022/07/14 02:55:05;;;;;;;11.17;4.20;;;20.10;99.90;;;;;;5011893;28;20203;-82
2022/07/14 02:57:31;;;;;;;17.00;4.30;;;20.10;99.90;;;;;;5010263;28;20189;-80
2022/07/14 02:59:57;;;;;;;14.77;4.30;;;20.00;99.90;;;;;;5005511;28;20432;-81
2022/07/14 03:02:22;;;;;;;10.47;3.43;;;20.00;99.90;;;;;;5014534;28;20208;-82
2022/07/14 03:04:48;;;;;;;8.50;3.77;;;20.00;99.90;;;;;;5015963;28;20178;-81
2022/07/14 03:07:13;;;;;;;13.77;3.83;;;19.90;99.90;;;;;;5016024;28;20185;-81
2022/07/14 03:09:39;;;;;;;17.43;3.63;;;19.90;99.90;;;;;;5012470;28;20232;-81
2022/07/14 03:12:05;;;;;;;8.63;3.50;;;19.90;99.90;;;;;;5025974;28;20247;-81
2022/07/14 03:14:30;;;;;;;7.83;3.53;;;19.90;99.90;;;;;;5012870;28;20197;-81
2022/07/14 03:16:56;;;;;;;18.70;4.13;;;19.80;99.90;;;;;;5015116;28;20220;-81
2022/07/14 03:19:21;;;;;;;11.57;3.53;;;19.80;99.90;;;;;;5014349;28;20631;-82
2022/07/14 03:21:47;;;;;;;8.03;3.80;;;19.80;99.90;;;;;;5016047;28;20220;-81
2022/07/14 03:24:13;;;;;;;14.10;4.40;;;19.80;99.90;;;;;;5016471;28;20186;-81
2022/07/14 03:26:39;;;;;;;12.87;3.57;;;19.70;99.90;;;;;;5013792;28;20197;-81
2022/07/14 03:29:05;;;;;;;14.83;3.93;;;19.70;99.90;;;;;;5014919;28;20446;-81
2022/07/14 03:31:31;;;;;;;10.50;3.83;;;19.70;99.90;;;;;;5013072;28;20460;-80
2022/07/14 03:33:56;;;;;;;15.70;4.70;;;19.60;99.90;;;;;;5014604;28;20486;-81
2022/07/14 03:36:22;;;;;;;14.90;4.50;;;19.60;99.90;;;;;;5013511;28;20299;-82
2022/07/14 03:38:47;;;;;;;15.37;4.47;;;19.60;99.90;;;;;;5026070;28;20195;-81
2022/07/14 03:41:13;;;;;;;12.33;3.93;;;19.50;99.90;;;;;;5014264;28;20976;-81
2022/07/14 03:43:39;;;;;;;26.00;4.47;;;19.50;99.90;;;;;;5014033;28;20182;-81
2022/07/14 03:46:05;;;;;;;14.60;4.53;;;19.50;99.90;;;;;;5015853;28;20187;-81
2022/07/14 03:48:31;;;;;;;17.63;4.53;;;19.50;99.90;;;;;;5014317;28;20259;-80
2022/07/14 03:50:57;;;;;;;12.07;4.50;;;19.50;99.90;;;;;;5014242;28;20509;-81
2022/07/14 03:53:22;;;;;;;14.20;4.90;;;19.50;99.90;;;;;;5012977;28;20441;-81
2022/07/14 03:55:48;;;;;;;11.70;5.30;;;19.40;99.90;;;;;;5014109;28;20683;-81
2022/07/14 03:58:14;;;;;;;13.20;4.07;;;19.40;99.90;;;;;;5013636;28;20237;-81
2022/07/14 04:00:40;;;;;;;11.20;4.80;;;19.40;99.90;;;;;;5010459;28;20751;-81
2022/07/14 04:03:05;;;;;;;12.30;4.33;;;19.40;99.90;;;;;;5014264;28;20431;-81
2022/07/14 04:05:32;;;;;;;13.43;4.27;;;19.40;99.90;;;;;;5013902;28;20189;-81
2022/07/14 04:07:57;;;;;;;12.47;4.47;;;19.40;99.90;;;;;;5014118;28;20333;-81
2022/07/14 04:10:23;;;;;;;12.63;4.40;;;19.40;99.90;;;;;;5014298;28;21314;-81
2022/07/14 04:12:48;;;;;;;18.50;4.67;;;19.50;99.90;;;;;;5012900;28;20214;-81
2022/07/14 04:15:14;;;;;;;14.67;4.00;;;19.50;99.90;;;;;;5012006;28;20644;-81
2022/07/14 04:17:39;;;;;;;9.20;4.20;;;19.50;99.90;;;;;;5011761;28;20674;-81
2022/07/14 04:20:06;;;;;;;19.17;5.50;;;19.50;99.90;;;;;;5014381;28;20182;-81
2022/07/14 04:22:31;;;;;;;14.83;4.30;;;19.50;99.90;;;;;;5011791;28;20214;-81
2022/07/14 04:24:57;;;;;;;27.10;5.37;;;19.50;99.90;;;;;;5020576;28;20430;-80
2022/07/14 04:27:22;;;;;;;13.07;4.63;;;19.50;99.90;;;;;;5009941;28;20663;-81
2022/07/14 04:29:48;;;;;;;12.60;4.57;;;19.50;99.90;;;;;;5011491;28;20283;-81
2022/07/14 04:32:13;;;;;;;14.93;4.40;;;19.60;99.90;;;;;;5012539;28;20263;-81
2022/07/14 04:34:40;;;;;;;19.13;4.77;;;19.60;99.90;;;;;;5013914;28;20186;-81
2022/07/14 04:37:05;;;;;;;18.67;4.67;;;19.70;94.50;;;;;;5013135;28;20220;-81
2022/07/14 04:39:31;;;;;;;16.13;5.47;;;19.80;20.70;;;;;;5010234;28;20440;-81
2022/07/14 04:41:56;;;;;;;24.63;4.87;;;19.80;1.00;;;;;;5012630;28;20775;-81
2022/07/14 04:44:22;;;;;;;14.23;4.37;;;19.90;1.00;;;;;;5014443;28;20199;-81
2022/07/14 04:46:48;;;;;;;13.13;4.37;;;20.00;1.00;;;;;;5010232;28;20192;-81
2022/07/14 04:52:03;;;;;;;11.20;4.37;;;20.00;1.00;;;;;;5012581;28;20235;-81
2022/07/14 04:54:34;;;;;;;19.90;5.33;;;20.00;1.00;;;;;;5012191;28;20452;-81
2022/07/14 04:57:01;;;;;;;12.70;4.20;;;20.00;99.90;;;;;;5012915;28;20478;-81
2022/07/14 04:59:28;;;;;;;11.27;3.93;;;20.00;99.90;;;;;;5013148;28;20440;-81
2022/07/14 05:01:54;;;;;;;22.20;5.87;;;20.10;99.90;;;;;;5010113;28;20469;-81
2022/07/14 05:04:20;;;;;;;11.73;4.70;;;20.20;99.90;;;;;;5013705;28;22147;-81
2022/07/14 05:06:46;;;;;;;17.93;4.90;;;20.40;99.90;;;;;;5011980;28;20471;-81
2022/07/14 05:09:13;;;;;;;12.97;4.70;;;20.60;99.90;;;;;;5010469;28;20702;-81
2022/07/14 05:11:39;;;;;;;15.00;5.10;;;20.90;99.90;;;;;;5011017;28;20490;-81
2022/07/14 05:14:05;;;;;;;12.73;4.70;;;21.20;3.20;;;;;;5011439;28;20951;-81
2022/07/14 05:16:31;;;;;;;21.77;5.40;;;21.50;1.00;;;;;;5011906;28;20481;-81
2022/07/14 05:18:56;;;;;;;15.53;4.87;;;21.70;1.00;;;;;;5022795;28;20438;-81
2022/07/14 05:21:22;;;;;;;10.97;4.57;;;21.80;1.00;;;;;;5011860;28;20215;-81
2022/07/14 05:23:47;;;;;;;11.90;5.20;;;21.90;1.00;;;;;;5012482;28;20251;-81
2022/07/14 05:26:14;;;;;;;11.67;5.17;;;22.00;1.00;;;;;;5012616;28;20216;-82
2022/07/14 05:28:40;;;;;;;11.93;5.23;;;22.00;1.00;;;;;;5011713;28;20192;-81
2022/07/14 05:31:06;;;;;;;17.80;4.23;;;21.90;1.00;;;;;;5012884;28;20997;-81
2022/07/14 05:33:32;;;;;;;16.10;4.60;;;21.90;1.00;;;;;;5014570;28;20442;-82
2022/07/14 05:35:58;;;;;;;12.33;5.13;;;21.90;1.00;;;;;;5012829;28;20468;-81
2022/07/14 05:38:23;;;;;;;9.93;4.40;;;22.00;99.90;;;;;;5012201;28;20448;-82
2022/07/14 05:40:50;;;;;;;11.43;4.87;;;22.10;99.90;;;;;;5011122;28;20218;-81
2022/07/14 05:43:16;;;;;;;18.40;5.83;;;22.20;99.90;;;;;;5012540;28;20625;-81
2022/07/14 05:45:41;;;;;;;11.07;5.17;;;22.20;99.90;;;;;;5011725;28;20460;-82
2022/07/14 05:48:07;;;;;;;14.53;5.40;;;22.50;99.90;;;;;;5012483;28;20224;-82
2022/07/14 05:50:32;;;;;;;16.37;5.60;;;22.70;99.90;;;;;;5013573;28;20282;-81
2022/07/14 05:52:58;;;;;;;13.57;4.90;;;22.60;99.90;;;;;;5012364;28;20189;-81
2022/07/14 05:55:24;;;;;;;11.87;4.93;;;22.50;99.90;;;;;;5011777;28;20208;-82
2022/07/14 05:57:51;;;;;;;20.03;6.10;;;22.30;99.90;;;;;;5014104;28;20712;-81
2022/07/14 06:00:17;;;;;;;11.80;5.33;;;22.20;99.90;;;;;;5012751;28;20609;-81
2022/07/14 06:02:43;;;;;;;12.90;4.90;;;22.00;99.90;;;;;;5009228;28;22006;-81
2022/07/14 06:05:10;;;;;;;14.77;5.40;;;22.00;99.90;;;;;;5011827;28;20432;-80
2022/07/14 06:07:36;;;;;;;15.13;6.20;;;21.90;99.90;;;;;;5012897;28;20815;-81
2022/07/14 06:10:01;;;;;;;14.67;5.33;;;21.90;99.90;;;;;;5015297;28;21038;-81
2022/07/14 06:12:28;;;;;;;15.87;5.70;;;21.90;99.90;;;;;;5015809;28;20501;-82
2022/07/14 06:14:54;;;;;;;12.03;5.40;;;21.80;99.90;;;;;;5012187;28;20952;-82
2022/07/14 06:17:19;;;;;;;18.93;5.97;;;21.90;99.90;;;;;;5013978;28;20192;-83
2022/07/14 06:19:45;;;;;;;15.83;5.40;;;22.00;99.90;;;;;;5012522;28;20193;-80
2022/07/14 06:22:11;;;;;;;14.20;5.23;;;22.20;99.90;;;;;;5012506;28;20654;-81
2022/07/14 06:24:38;;;;;;;18.23;5.23;;;22.70;99.90;;;;;;5010658;28;20187;-82
2022/07/14 06:27:03;;;;;;;15.00;5.30;;;23.30;99.90;;;;;;5010870;28;20193;-83
2022/07/14 06:29:29;;;;;;;12.80;4.93;;;24.30;99.90;;;;;;5014179;28;20441;-81
2022/07/14 06:31:55;;;;;;;20.50;5.90;;;24.90;99.90;;;;;;5012787;28;20206;-83
2022/07/14 06:34:22;;;;;;;16.20;5.23;;;25.80;99.90;;;;;;5012497;28;20183;-83
2022/07/14 06:36:47;;;;;;;11.90;5.80;;;28.70;99.90;;;;;;5013764;28;20473;-82
2022/07/14 06:39:14;;;;;;;13.80;4.70;;;28.70;99.90;;;;;;5011949;28;20441;-83
2022/07/14 06:41:40;;;;;;;21.73;5.50;;;28.50;99.90;;;;;;5011226;28;20199;-82
2022/07/14 06:44:06;;;;;;;12.40;4.40;;;28.20;99.90;;;;;;5010306;28;20437;-83
2022/07/14 06:46:32;;;;;;;13.80;6.03;;;28.10;99.90;;;;;;5011535;28;20444;-84
2022/07/14 06:48:59;;;;;;;14.60;4.73;;;28.20;99.90;;;;;;5012002;28;20470;-83
2022/07/14 06:51:25;;;;;;;15.23;5.50;;;28.00;99.90;;;;;;5011529;28;20210;-82
2022/07/14 06:53:51;;;;;;;15.20;5.73;;;28.90;99.90;;;;;;5012727;28;20449;-82
2022/07/14 06:56:17;;;;;;;14.50;4.90;;;30.80;99.90;;;;;;5014281;28;20466;-82
2022/07/14 06:58:42;;;;;;;15.70;5.73;;;29.60;99.90;;;;;;5008136;28;20667;-84
2022/07/14 07:01:08;;;;;;;15.50;5.50;;;28.50;99.90;;;;;;5014683;28;20305;-82
2022/07/14 07:03:33;;;;;;;13.43;5.50;;;27.70;99.90;;;;;;5011716;28;21406;-82
2022/07/14 07:08:43;;;;;;;15.97;5.80;;;27.00;99.90;;;;;;5016016;28;20564;-83
2022/07/14 07:11:09;;;;;;;21.83;5.60;;;27.90;99.90;;;;;;5012176;28;20473;-84
2022/07/14 07:13:37;;;;;;;17.57;5.40;;;29.30;99.90;;;;;;5016422;28;20434;-84
2022/07/14 07:16:07;;;;;;;14.80;5.33;;;33.50;99.90;;;;;;5016488;28;20682;-83
2022/07/14 07:18:34;;;;;;;15.07;5.63;;;33.50;99.90;;;;;;5017328;28;20517;-83
2022/07/14 07:20:59;;;;;;;11.83;4.30;;;32.50;99.90;;;;;;5014400;28;20473;-84
2022/07/14 07:23:25;;;;;;;14.70;4.50;;;31.40;99.90;;;;;;5015071;28;20438;-83
2022/07/14 07:25:51;;;;;;;15.77;4.83;;;30.30;99.90;;;;;;5013312;28;20333;-84
2022/07/14 07:28:17;;;;;;;14.43;4.80;;;32.30;99.90;;;;;;5013654;28;20434;-83
2022/07/14 07:30:43;;;;;;;12.63;4.47;;;35.50;99.90;;;;;;5014781;28;20802;-84
2022/07/14 07:33:08;;;;;;;10.63;4.20;;;37.10;99.90;;;;;;5012719;28;20305;-82
2022/07/14 07:35:34;;;;;;;12.10;4.07;;;38.60;99.90;;;;;;5015722;28;20215;-82
2022/07/14 07:38:00;;;;;;;9.40;3.90;;;40.70;99.90;;;;;;5015080;28;20191;-82
2022/07/14 07:40:26;;;;;;;10.97;4.03;;;40.60;99.90;;;;;;5012642;28;20199;-82
2022/07/14 07:42:51;;;;;;;15.70;4.07;;;40.40;99.90;;;;;;5012219;28;20186;-84
2022/07/14 07:45:17;;;;;;;12.87;4.10;;;39.20;99.90;;;;;;5015112;28;20193;-84
2022/07/14 07:47:43;;;;;;;12.50;3.20;;;38.60;99.90;;;;;;5012073;28;20198;-84
2022/07/14 07:50:10;;;;;;;13.90;4.40;;;39.50;99.90;;;;;;5016112;28;20274;-84
2022/07/14 07:52:37;;;;;;;10.20;3.50;;;41.50;99.90;;;;;;5017896;28;20195;-84
2022/07/14 07:55:08;;;;;;;9.00;3.03;;;44.30;99.90;;;;;;5015347;28;20481;-83
2022/07/14 07:57:34;;;;;;;8.23;3.60;;;45.10;99.90;;;;;;5014628;28;20512;-83
2022/07/14 08:00:00;;;;;;;11.50;3.30;;;47.40;99.90;;;;;;5016092;28;20434;-83
2022/07/14 08:02:26;;;;;;;6.90;2.60;;;47.50;97.20;;;;;;5016938;28;20191;-83
2022/07/14 08:04:52;;;;;;;11.83;2.80;;;47.20;92.60;;;;;;5016164;28;20197;-83
2022/07/14 08:07:18;;;;;;;6.27;1.90;;;47.90;91.00;;;;;;5018428;28;20450;-83
2022/07/14 08:09:44;;;;;;;7.97;3.13;;;47.40;82.60;;;;;;5018382;28;20191;-84
2022/07/14 08:12:10;;;;;;;7.07;2.70;;;47.10;74.10;;;;;;5018783;28;21027;-83
2022/07/14 08:14:51;;;;;;;8.40;3.17;;;48.20;71.20;;;;;;5017088;28;20186;-84
2022/07/14 08:17:19;;;;;;;7.93;3.63;;;48.90;68.90;;;;;;5020122;28;20207;-83
2022/07/14 08:19:45;;;;;;;7.30;2.67;;;48.10;60.50;;;;;;5018751;28;20455;-83
2022/07/14 08:22:10;;;;;;;8.40;2.97;;;48.30;57.50;;;;;;5019502;28;20465;-83
2022/07/14 08:24:36;;;;;;;8.20;3.00;;;46.90;52.10;;;;;;5017038;28;20465;-84
2022/07/14 08:27:02;;;;;;;8.13;2.50;;;47.30;51.80;;;;;;5016113;28;20191;-83
2022/07/14 08:29:28;;;;;;;6.97;2.43;;;45.50;44.70;;;;;;5015767;28;20214;-84
2022/07/14 08:31:53;;;;;;;8.63;2.87;;;43.30;40.30;;;;;;5013926;28;20465;-84
2022/07/14 08:34:19;;;;;;;8.97;2.67;;;43.80;42.40;;;;;;5015908;28;20192;-85
2022/07/14 08:36:44;;;;;;;6.77;2.33;;;45.90;47.00;;;;;;5014856;28;20698;-84
2022/07/14 08:39:10;;;;;;;6.30;2.37;;;44.80;41.90;;;;;;5016974;28;20179;-84
2022/07/14 08:41:37;;;;;;;7.17;1.70;;;43.30;38.10;;;;;;5019254;28;20258;-83
2022/07/14 08:44:06;;;;;;;8.03;2.30;;;43.10;37.30;;;;;;5018080;28;20438;-84
2022/07/14 08:46:38;;;;;;;6.73;1.90;;;45.50;42.40;;;;;;5015694;28;21019;-84
2022/07/14 08:49:06;;;;;;;6.07;2.20;;;47.70;45.30;;;;;;5015608;28;20437;-85
2022/07/14 08:51:33;;;;;;;3.60;1.63;;;47.60;42.60;;;;;;5016984;28;20458;-83
2022/07/14 08:54:01;;;;;;;5.97;2.00;;;47.50;39.40;;;;;;5015892;28;20846;-83
2022/07/14 08:56:26;;;;;;;6.77;2.27;;;49.00;41.20;;;;;;5026575;28;21057;-84
2022/07/14 08:58:52;;;;;;;8.80;2.10;;;49.20;38.60;;;;;;5016652;28;20460;-83
2022/07/14 09:01:18;;;;;;;6.60;2.30;;;49.70;38.20;;;;;;5014032;28;20285;-82
2022/07/14 09:03:43;;;;;;;7.90;2.10;;;49.30;36.00;;;;;;5014865;28;20718;-83
2022/07/14 09:06:09;;;;;;;5.17;2.10;;;49.10;33.80;;;;;;5030750;28;20209;-85
2022/07/14 09:08:54;;;;;;;6.50;2.00;;;48.60;30.80;;;;;;5015966;28;20608;-83
2022/07/14 09:11:19;;;;;;;10.00;2.40;;;49.60;32.00;;;;;;5009421;28;20264;-84
2022/07/14 09:13:45;;;;;;;8.47;2.43;;;50.30;32.60;;;;;;5010342;28;20957;-83
2022/07/14 09:16:21;;;;;;;5.10;2.10;;;49.60;30.00;;;;;;5004165;28;20214;-83
2022/07/14 09:19:07;;;;;;;7.77;2.00;;;49.30;28.40;;;;;;5014635;28;20187;-83
2022/07/14 09:21:34;;;;;;;4.80;1.80;;;47.90;26.20;;;;;;5021337;28;20462;-83
2022/07/14 09:24:00;;;;;;;6.83;2.10;;;46.70;23.10;;;;;;5017088;28;20430;-83
2022/07/14 09:26:26;;;;;;;3.50;1.63;;;46.30;22.60;;;;;;5017434;28;20433;-83
2022/07/14 09:28:52;;;;;;;4.80;1.67;;;45.80;21.40;;;;;;5015960;28;20198;-83
2022/07/14 09:31:29;;;;;;;8.23;2.07;;;46.00;22.20;;;;;;5017850;28;20290;-83
2022/07/14 09:34:00;;;;;;;5.80;1.70;;;46.40;22.10;;;;;;5018441;28;20182;-83
2022/07/14 09:36:33;;;;;;;8.03;1.87;;;45.90;20.80;;;;;;5018502;28;20553;-83
2022/07/14 09:39:05;;;;;;;4.03;1.77;;;46.50;31.80;;;;;;5024190;28;20434;-83
2022/07/14 09:41:36;;;;;;;4.07;1.77;;;47.70;24.50;;;;;;5017064;28;20457;-83
2022/07/14 09:44:07;;;;;;;4.90;1.53;;;47.30;22.40;;;;;;5016569;28;20441;-84
2022/07/14 09:46:43;;;;;;;7.57;2.07;;;46.10;19.40;;;;;;5009443;28;20469;-84
2022/07/14 09:49:08;;;;;;;4.70;1.50;;;47.30;21.80;;;;;;5009388;28;20441;-84
2022/07/14 09:51:41;;;;;;;4.50;1.47;;;47.40;21.80;;;;;;5011234;28;20438;-84
2022/07/14 09:54:07;;;;;;;5.40;1.97;;;47.00;19.80;;;;;;5009132;28;20182;-84
2022/07/14 09:56:32;;;;;;;4.73;1.63;;;47.70;21.10;;;;;;5009151;28;20532;-84
2022/07/14 09:58:59;;;;;;;3.73;1.80;;;47.90;21.10;;;;;;5008739;28;20194;-83
2022/07/14 10:01:24;;;;;;;7.00;2.60;;;46.90;18.30;;;;;;5006391;28;20198;-84
2022/07/14 10:03:53;;;;;;;5.40;1.90;;;46.80;18.00;;;;;;5006609;28;20853;-84
2022/07/14 10:06:20;;;;;;;5.13;1.43;;;46.90;17.50;;;;;;5008694;28;20789;-83
2022/07/14 10:08:54;;;;;;;6.50;2.33;;;46.20;16.40;;;;;;5022961;28;20445;-84
2022/07/14 10:11:21;;;;;;;5.00;1.80;;;45.80;15.30;;;;;;5006818;28;20861;-83
2022/07/14 10:13:46;;;;;;;5.70;2.03;;;46.80;17.10;;;;;;5007671;28;20434;-84
2022/07/14 10:16:14;;;;;;;3.50;1.50;;;47.50;17.60;;;;;;5008146;28;20466;-84
2022/07/14 10:18:42;;;;;;;4.13;1.20;;;48.10;18.60;;;;;;5006986;28;20278;-84
2022/07/14 10:21:09;;;;;;;4.57;1.77;;;48.30;19.00;;;;;;5007481;28;20480;-84
2022/07/14 10:23:36;;;;;;;5.00;1.70;;;47.80;17.30;;;;;;5008490;28;20434;-84
2022/07/14 10:26:08;;;;;;;3.97;1.30;;;47.50;16.50;;;;;;5005858;28;20452;-84
2022/07/14 10:28:34;;;;;;;4.13;1.33;;;47.60;15.90;;;;;;5008713;28;20481;-84
2022/07/14 10:31:28;;;;;;;5.30;1.83;;;47.80;15.90;;;;;;5007336;28;20536;-84
2022/07/14 10:34:27;;;;;;;7.07;2.00;;;48.10;17.10;;;;;;5006276;28;20190;-84
2022/07/14 10:37:08;;;;;;;6.00;1.87;;;48.60;16.80;;;;;;5002748;28;20674;-84
2022/07/14 10:40:01;;;;;;;7.90;2.00;;;49.10;16.60;;;;;;5004213;28;20444;-84
2022/07/14 10:42:52;;;;;;;5.80;2.13;;;48.20;15.00;;;;;;5007943;28;20591;-84
2022/07/14 10:45:17;;;;;;;4.07;1.60;;;47.30;12.90;;;;;;5009150;28;20485;-84
2022/07/14 10:47:52;;;;;;;4.63;1.60;;;47.30;12.90;;;;;;5008696;28;20484;-84
2022/07/14 10:50:21;;;;;;;3.47;1.40;;;47.10;12.50;;;;;;5003710;28;20211;-84
2022/07/14 10:53:00;;;;;;;6.40;1.90;;;47.30;13.60;;;;;;5006737;28;20442;-84
2022/07/14 10:55:28;;;;;;;4.90;1.30;;;47.30;13.50;;;;;;5006462;28;20894;-84
2022/07/14 10:58:00;;;;;;;4.20;1.27;;;47.40;13.00;;;;;;5004818;28;20450;-86
2022/07/14 11:00:43;;;;;;;6.50;1.53;;;46.90;11.70;;;;;;5025011;28;20458;-84
2022/07/14 11:03:25;;;;;;;4.37;1.80;;;46.70;10.70;;;;;;5006774;28;20469;-84
2022/07/14 11:08:29;;;;;;;3.07;1.30;;;46.90;10.60;;;;;;5007406;28;20518;-83
2022/07/14 11:10:56;;;;;;;4.17;1.23;;;47.00;11.10;;;;;;5005110;28;20484;-84
2022/07/14 11:13:22;;;;;;;5.73;1.93;;;46.90;11.00;;;;;;5008103;28;20433;-84
2022/07/14 11:15:56;;;;;;;3.70;1.90;;;46.70;10.20;;;;;;5006355;28;20457;-84
2022/07/14 11:18:33;;;;;;;7.27;1.93;;;46.40;10.30;;;;;;5004504;28;20205;-84
2022/07/14 11:21:06;;;;;;;4.60;1.80;;;46.40;10.00;;;;;;5003794;28;20539;-85
2022/07/14 11:23:48;;;;;;;5.33;2.30;;;46.00;9.70;;;;;;5009236;28;20437;-83
2022/07/14 11:26:35;;;;;;;5.00;1.77;;;45.90;9.00;;;;;;5008962;28;20441;-84
2022/07/14 11:29:03;;;;;;;6.13;2.10;;;46.00;9.70;;;;;;5009599;28;20954;-84
2022/07/14 11:31:46;;;;;;;5.60;2.07;;;45.80;9.30;;;;;;5010194;28;20603;-83
2022/07/14 11:37:13;;;;;;;3.67;1.90;;;45.70;9.00;;;;;;5008246;28;20485;-84
2022/07/14 11:39:41;;;;;;;3.43;1.50;;;45.70;10.00;;;;;;5010412;28;20544;-84
2022/07/14 11:42:09;;;;;;;4.60;2.07;;;45.80;9.10;;;;;;5008271;28;20457;-84
2022/07/14 11:44:40;;;;;;;8.93;2.00;;;45.60;8.60;;;;;;5011042;28;20448;-84
2022/07/14 11:47:16;;;;;;;6.30;2.47;;;45.00;7.70;;;;;;5008352;28;20444;-84
2022/07/14 11:49:52;;;;;;;4.13;2.00;;;44.60;6.70;;;;;;5010671;28;20444;-84
2022/07/14 11:52:30;;;;;;;11.53;1.97;;;43.50;4.70;;;;;;5021896;28;20466;-85
2022/07/14 11:54:57;;;;;;;4.23;2.43;;;42.80;4.90;;;;;;5012724;28;20472;-83
2022/07/14 11:57:23;;;;;;;6.93;1.67;;;42.70;4.80;;;;;;5012888;28;20469;-83
2022/07/14 11:59:49;;;;;;;5.83;1.50;;;43.40;7.00;;;;;;5013926;28;20521;-83
2022/07/14 12:02:18;;;;;;;3.20;1.63;;;44.00;8.40;;;;;;5012122;28;20462;-83
2022/07/14 12:04:53;;;;;;;4.17;2.27;;;44.50;9.70;;;;;;5012806;28;20988;-84
2022/07/14 12:07:22;;;;;;;3.77;1.30;;;44.80;10.10;;;;;;5011772;28;20518;-84
2022/07/14 12:09:48;;;;;;;4.93;2.27;;;45.00;10.40;;;;;;5010068;28;20520;-84
2022/07/14 12:12:16;;;;;;;3.57;1.47;;;44.90;10.40;;;;;;5011311;28;20477;-83
2022/07/14 12:14:46;;;;;;;4.13;1.80;;;45.00;9.70;;;;;;5010621;28;20441;-83
2022/07/14 12:17:11;;;;;;;4.33;1.70;;;44.90;10.20;;;;;;5010228;28;20508;-84
2022/07/14 12:19:37;;;;;;;2.03;1.40;;;45.30;11.00;;;;;;5011653;28;20874;-84
2022/07/14 12:22:05;;;;;;;3.53;1.50;;;45.40;10.40;;;;;;5014839;28;20210;-83
2022/07/14 12:24:31;;;;;;;3.70;1.27;;;45.20;10.60;;;;;;5013818;28;20191;-83
2022/07/14 12:27:05;;;;;;;4.00;1.37;;;45.10;9.90;;;;;;5010737;28;20464;-83
2022/07/14 12:29:33;;;;;;;3.13;1.57;;;45.00;19.40;;;;;;5012177;28;20453;-83
2022/07/14 12:32:00;;;;;;;3.83;1.90;;;44.90;9.10;;;;;;5010502;28;20848;-83
2022/07/14 12:34:27;;;;;;;5.53;1.70;;;44.60;8.50;;;;;;5012880;28;20516;-83
2022/07/14 12:36:58;;;;;;;4.70;1.87;;;44.50;8.10;;;;;;5012593;28;20477;-84
2022/07/14 12:39:24;;;;;;;4.77;1.93;;;44.10;7.70;;;;;;5013001;28;20804;-83
2022/07/14 12:41:50;;;;;;;3.53;1.77;;;43.50;6.30;;;;;;5014293;28;20457;-82
2022/07/14 12:44:16;;;;;;;6.27;1.70;;;43.40;6.20;;;;;;5011771;28;20594;-83
2022/07/14 12:46:42;;;;;;;6.73;1.80;;;43.00;5.80;;;;;;5013294;28;20210;-83
2022/07/14 12:49:09;;;;;;;3.63;1.80;;;42.30;4.90;;;;;;5011469;28;20477;-83
2022/07/14 12:51:43;;;;;;;4.70;1.93;;;41.20;3.60;;;;;;5015152;28;20221;-83
2022/07/14 12:54:16;;;;;;;6.73;1.90;;;40.70;3.70;;;;;;5003131;28;20468;-83
2022/07/14 12:56:52;;;;;;;6.13;2.13;;;40.40;4.00;;;;;;5016188;28;20544;-82
2022/07/14 12:59:24;;;;;;;6.43;2.13;;;40.10;4.30;;;;;;5012773;28;20445;-82
2022/07/14 13:01:59;;;;;;;3.63;1.63;;;39.60;3.60;;;;;;5015722;28;20464;-82
2022/07/14 13:04:37;;;;;;;4.67;1.67;;;39.40;5.30;;;;;;5014955;28;20469;-83